sensor_id;sensor_type;location;lat;lon;timestamp;P1;durP1;ratioP1;P2;durP2;ratioP2
1799;SDS011;919;48.274;12.292;2022-12-01T00:00:12;23.87;;;13.30;;
1799;SDS011;919;48.274;12.292;2022-12-01T00:02:39;29.17;;;15.73;;
1799;SDS011;919;48.274;12.292;2022-12-01T00:05:06;27.67;;;15.70;;
1799;SDS011;919;48.274;12.292;2022-12-01T00:07:33;32.27;;;17.10;;
1799;SDS011;919;48.274;12.292;2022-12-01T00:10:00;31.90;;;15.80;;
1799;SDS011;919;48.274;12.292;2022-12-01T00:12:45;26.53;;;15.13;;
1799;SDS011;919;48.274;12.292;2022-12-01T00:15:12;31.57;;;14.43;;
1799;SDS011;919;48.274;12.292;2022-12-01T00:17:39;33.10;;;16.30;;
1799;SDS011;919;48.274;12.292;2022-12-01T00:20:08;28.33;;;16.50;;
1799;SDS011;919;48.274;12.292;2022-12-01T00:22:35;29.87;;;16.07;;
1799;SDS011;919;48.274;12.292;2022-12-01T00:25:02;34.50;;;16.67;;
1799;SDS011;919;48.274;12.292;2022-12-01T00:27:29;35.33;;;16.40;;
1799;SDS011;919;48.274;12.292;2022-12-01T00:29:57;37.13;;;18.63;;
1799;SDS011;919;48.274;12.292;2022-12-01T00:32:24;31.70;;;15.43;;
1799;SDS011;919;48.274;12.292;2022-12-01T00:34:51;25.50;;;14.80;;
1799;SDS011;919;48.274;12.292;2022-12-01T00:37:18;32.50;;;14.97;;
1799;SDS011;919;48.274;12.292;2022-12-01T00:39:44;32.90;;;17.00;;
1799;SDS011;919;48.274;12.292;2022-12-01T00:42:11;34.37;;;16.90;;
1799;SDS011;919;48.274;12.292;2022-12-01T00:44:38;24.67;;;13.47;;
1799;SDS011;919;48.274;12.292;2022-12-01T00:47:06;29.77;;;15.80;;
1799;SDS011;919;48.274;12.292;2022-12-01T00:49:32;26.20;;;14.17;;
1799;SDS011;919;48.274;12.292;2022-12-01T00:51:59;33.53;;;15.90;;
1799;SDS011;919;48.274;12.292;2022-12-01T00:54:26;30.63;;;14.53;;
1799;SDS011;919;48.274;12.292;2022-12-01T00:56:56;28.50;;;14.50;;
1799;SDS011;919;48.274;12.292;2022-12-01T00:59:22;27.60;;;15.70;;
1799;SDS011;919;48.274;12.292;2022-12-01T01:01:49;23.20;;;13.97;;
1799;SDS011;919;48.274;12.292;2022-12-01T01:04:17;25.43;;;14.77;;
1799;SDS011;919;48.274;12.292;2022-12-01T01:06:44;34.27;;;15.37;;
1799;SDS011;919;48.274;12.292;2022-12-01T01:09:12;29.47;;;16.60;;
1799;SDS011;919;48.274;12.292;2022-12-01T01:11:39;28.07;;;14.53;;
1799;SDS011;919;48.274;12.292;2022-12-01T01:14:06;32.93;;;14.63;;
1799;SDS011;919;48.274;12.292;2022-12-01T01:16:33;30.90;;;16.13;;
1799;SDS011;919;48.274;12.292;2022-12-01T01:19:00;29.30;;;18.30;;
1799;SDS011;919;48.274;12.292;2022-12-01T01:21:28;34.07;;;16.50;;
1799;SDS011;919;48.274;12.292;2022-12-01T01:23:55;26.63;;;14.90;;
1799;SDS011;919;48.274;12.292;2022-12-01T01:26:22;32.77;;;15.97;;
1799;SDS011;919;48.274;12.292;2022-12-01T01:28:50;29.97;;;15.00;;
1799;SDS011;919;48.274;12.292;2022-12-01T01:31:19;29.97;;;15.47;;
1799;SDS011;919;48.274;12.292;2022-12-01T01:33:46;20.07;;;13.10;;
1799;SDS011;919;48.274;12.292;2022-12-01T01:36:14;29.23;;;15.30;;
1799;SDS011;919;48.274;12.292;2022-12-01T01:38:42;26.47;;;14.07;;
1799;SDS011;919;48.274;12.292;2022-12-01T01:41:09;35.30;;;16.60;;
1799;SDS011;919;48.274;12.292;2022-12-01T01:43:38;24.93;;;14.60;;
1799;SDS011;919;48.274;12.292;2022-12-01T01:46:06;30.00;;;16.43;;
1799;SDS011;919;48.274;12.292;2022-12-01T01:48:35;31.27;;;16.33;;
1799;SDS011;919;48.274;12.292;2022-12-01T01:51:06;31.70;;;15.87;;
1799;SDS011;919;48.274;12.292;2022-12-01T01:53:33;31.57;;;16.60;;
1799;SDS011;919;48.274;12.292;2022-12-01T01:56:02;28.80;;;15.37;;
1799;SDS011;919;48.274;12.292;2022-12-01T01:58:29;32.73;;;16.87;;
1799;SDS011;919;48.274;12.292;2022-12-01T02:00:57;32.30;;;16.47;;
1799;SDS011;919;48.274;12.292;2022-12-01T02:03:24;28.77;;;16.27;;
1799;SDS011;919;48.274;12.292;2022-12-01T02:05:53;30.17;;;16.97;;
1799;SDS011;919;48.274;12.292;2022-12-01T02:08:20;32.50;;;17.23;;
1799;SDS011;919;48.274;12.292;2022-12-01T02:10:50;31.57;;;15.87;;
1799;SDS011;919;48.274;12.292;2022-12-01T02:13:32;30.53;;;16.67;;
1799;SDS011;919;48.274;12.292;2022-12-01T02:16:06;31.90;;;17.77;;
1799;SDS011;919;48.274;12.292;2022-12-01T02:18:40;27.03;;;14.97;;
1799;SDS011;919;48.274;12.292;2022-12-01T02:21:17;28.30;;;14.37;;
1799;SDS011;919;48.274;12.292;2022-12-01T02:24:01;27.80;;;15.47;;
1799;SDS011;919;48.274;12.292;2022-12-01T02:26:56;31.47;;;17.57;;
1799;SDS011;919;48.274;12.292;2022-12-01T02:29:33;28.53;;;15.67;;
1799;SDS011;919;48.274;12.292;2022-12-01T02:32:25;32.10;;;16.60;;
1799;SDS011;919;48.274;12.292;2022-12-01T02:34:56;25.93;;;14.63;;
1799;SDS011;919;48.274;12.292;2022-12-01T02:37:27;29.10;;;15.00;;
1799;SDS011;919;48.274;12.292;2022-12-01T02:40:00;28.03;;;12.97;;
1799;SDS011;919;48.274;12.292;2022-12-01T02:42:33;30.90;;;16.63;;
1799;SDS011;919;48.274;12.292;2022-12-01T02:45:22;30.87;;;15.03;;
1799;SDS011;919;48.274;12.292;2022-12-01T02:47:58;28.70;;;15.90;;
1799;SDS011;919;48.274;12.292;2022-12-01T02:50:27;38.47;;;17.00;;
1799;SDS011;919;48.274;12.292;2022-12-01T02:52:55;30.10;;;16.40;;
1799;SDS011;919;48.274;12.292;2022-12-01T02:55:22;32.80;;;17.40;;
1799;SDS011;919;48.274;12.292;2022-12-01T02:57:49;31.97;;;16.03;;
1799;SDS011;919;48.274;12.292;2022-12-01T03:00:16;29.10;;;15.90;;
1799;SDS011;919;48.274;12.292;2022-12-01T03:02:45;30.70;;;16.37;;
1799;SDS011;919;48.274;12.292;2022-12-01T03:05:23;29.33;;;15.77;;
1799;SDS011;919;48.274;12.292;2022-12-01T03:07:55;34.93;;;17.97;;
1799;SDS011;919;48.274;12.292;2022-12-01T03:10:30;31.60;;;15.20;;
1799;SDS011;919;48.274;12.292;2022-12-01T03:13:08;29.63;;;16.57;;
1799;SDS011;919;48.274;12.292;2022-12-01T03:15:45;25.47;;;15.40;;
1799;SDS011;919;48.274;12.292;2022-12-01T03:18:22;33.07;;;16.50;;
1799;SDS011;919;48.274;12.292;2022-12-01T03:20:56;26.03;;;16.80;;
1799;SDS011;919;48.274;12.292;2022-12-01T03:23:27;33.60;;;17.23;;
1799;SDS011;919;48.274;12.292;2022-12-01T03:25:59;28.60;;;17.00;;
1799;SDS011;919;48.274;12.292;2022-12-01T03:28:32;30.13;;;16.17;;
1799;SDS011;919;48.274;12.292;2022-12-01T03:31:02;32.33;;;16.13;;
1799;SDS011;919;48.274;12.292;2022-12-01T03:33:33;27.20;;;15.10;;
1799;SDS011;919;48.274;12.292;2022-12-01T03:36:07;29.73;;;16.07;;
1799;SDS011;919;48.274;12.292;2022-12-01T03:38:39;31.73;;;15.60;;
1799;SDS011;919;48.274;12.292;2022-12-01T03:41:09;30.90;;;16.00;;
1799;SDS011;919;48.274;12.292;2022-12-01T03:43:41;24.57;;;14.03;;
1799;SDS011;919;48.274;12.292;2022-12-01T03:46:16;25.30;;;13.40;;
1799;SDS011;919;48.274;12.292;2022-12-01T03:48:47;28.73;;;15.63;;
1799;SDS011;919;48.274;12.292;2022-12-01T03:51:19;26.23;;;13.40;;
1799;SDS011;919;48.274;12.292;2022-12-01T03:53:52;27.53;;;14.07;;
1799;SDS011;919;48.274;12.292;2022-12-01T03:56:23;23.90;;;11.60;;
1799;SDS011;919;48.274;12.292;2022-12-01T03:58:55;23.53;;;13.03;;
1799;SDS011;919;48.274;12.292;2022-12-01T04:01:28;23.13;;;11.17;;
1799;SDS011;919;48.274;12.292;2022-12-01T04:03:59;20.10;;;13.20;;
1799;SDS011;919;48.274;12.292;2022-12-01T04:06:31;21.60;;;12.20;;
1799;SDS011;919;48.274;12.292;2022-12-01T04:08:58;17.07;;;10.50;;
1799;SDS011;919;48.274;12.292;2022-12-01T04:11:25;23.70;;;13.23;;
1799;SDS011;919;48.274;12.292;2022-12-01T04:14:09;23.40;;;15.20;;
1799;SDS011;919;48.274;12.292;2022-12-01T04:16:36;30.97;;;15.20;;
1799;SDS011;919;48.274;12.292;2022-12-01T04:19:03;25.90;;;14.07;;
1799;SDS011;919;48.274;12.292;2022-12-01T04:21:29;19.97;;;12.10;;
1799;SDS011;919;48.274;12.292;2022-12-01T04:23:57;28.27;;;14.57;;
1799;SDS011;919;48.274;12.292;2022-12-01T04:26:27;24.07;;;14.03;;
1799;SDS011;919;48.274;12.292;2022-12-01T04:28:54;22.03;;;12.03;;
1799;SDS011;919;48.274;12.292;2022-12-01T04:31:21;26.90;;;14.17;;
1799;SDS011;919;48.274;12.292;2022-12-01T04:33:48;22.73;;;12.63;;
1799;SDS011;919;48.274;12.292;2022-12-01T04:36:15;22.40;;;13.50;;
1799;SDS011;919;48.274;12.292;2022-12-01T04:38:43;24.80;;;13.93;;
1799;SDS011;919;48.274;12.292;2022-12-01T04:41:10;21.63;;;13.10;;
1799;SDS011;919;48.274;12.292;2022-12-01T04:43:37;21.83;;;12.77;;
1799;SDS011;919;48.274;12.292;2022-12-01T04:46:05;28.00;;;12.67;;
1799;SDS011;919;48.274;12.292;2022-12-01T04:48:32;23.97;;;12.47;;
1799;SDS011;919;48.274;12.292;2022-12-01T04:51:00;19.43;;;11.80;;
1799;SDS011;919;48.274;12.292;2022-12-01T04:53:26;24.93;;;12.83;;
1799;SDS011;919;48.274;12.292;2022-12-01T04:55:55;21.57;;;12.30;;
1799;SDS011;919;48.274;12.292;2022-12-01T04:58:21;24.40;;;12.87;;
1799;SDS011;919;48.274;12.292;2022-12-01T05:00:48;20.43;;;12.10;;
1799;SDS011;919;48.274;12.292;2022-12-01T05:03:15;21.13;;;12.37;;
1799;SDS011;919;48.274;12.292;2022-12-01T05:05:42;18.13;;;10.27;;
1799;SDS011;919;48.274;12.292;2022-12-01T05:08:09;20.03;;;11.27;;
1799;SDS011;919;48.274;12.292;2022-12-01T05:10:36;16.53;;;11.60;;
1799;SDS011;919;48.274;12.292;2022-12-01T05:13:04;18.30;;;11.30;;
1799;SDS011;919;48.274;12.292;2022-12-01T05:15:31;20.90;;;12.57;;
1799;SDS011;919;48.274;12.292;2022-12-01T05:17:58;21.00;;;12.57;;
1799;SDS011;919;48.274;12.292;2022-12-01T05:20:25;23.23;;;12.47;;
1799;SDS011;919;48.274;12.292;2022-12-01T05:23:09;23.07;;;12.17;;
1799;SDS011;919;48.274;12.292;2022-12-01T05:25:36;22.03;;;11.60;;
1799;SDS011;919;48.274;12.292;2022-12-01T05:28:04;19.77;;;11.60;;
1799;SDS011;919;48.274;12.292;2022-12-01T05:30:31;20.50;;;12.10;;
1799;SDS011;919;48.274;12.292;2022-12-01T05:32:58;20.50;;;11.60;;
1799;SDS011;919;48.274;12.292;2022-12-01T05:35:25;21.13;;;12.80;;
1799;SDS011;919;48.274;12.292;2022-12-01T05:37:52;22.47;;;12.97;;
1799;SDS011;919;48.274;12.292;2022-12-01T05:40:18;22.43;;;12.30;;
1799;SDS011;919;48.274;12.292;2022-12-01T05:42:45;25.43;;;12.33;;
1799;SDS011;919;48.274;12.292;2022-12-01T05:45:13;23.23;;;12.07;;
1799;SDS011;919;48.274;12.292;2022-12-01T05:47:40;19.33;;;12.00;;
1799;SDS011;919;48.274;12.292;2022-12-01T05:50:07;19.27;;;11.73;;
1799;SDS011;919;48.274;12.292;2022-12-01T05:52:34;23.50;;;13.10;;
1799;SDS011;919;48.274;12.292;2022-12-01T05:55:01;20.30;;;12.00;;
1799;SDS011;919;48.274;12.292;2022-12-01T05:57:28;25.37;;;13.00;;
1799;SDS011;919;48.274;12.292;2022-12-01T05:59:56;24.23;;;11.97;;
1799;SDS011;919;48.274;12.292;2022-12-01T06:02:24;20.97;;;12.40;;
1799;SDS011;919;48.274;12.292;2022-12-01T06:04:51;22.50;;;11.90;;
1799;SDS011;919;48.274;12.292;2022-12-01T06:07:18;29.00;;;15.00;;
1799;SDS011;919;48.274;12.292;2022-12-01T06:09:47;22.90;;;13.37;;
1799;SDS011;919;48.274;12.292;2022-12-01T06:12:14;24.53;;;13.50;;
1799;SDS011;919;48.274;12.292;2022-12-01T06:14:41;28.30;;;14.07;;
1799;SDS011;919;48.274;12.292;2022-12-01T06:17:08;19.50;;;12.43;;
1799;SDS011;919;48.274;12.292;2022-12-01T06:19:36;23.03;;;13.27;;
1799;SDS011;919;48.274;12.292;2022-12-01T06:22:03;21.80;;;10.70;;
1799;SDS011;919;48.274;12.292;2022-12-01T06:24:30;26.80;;;12.60;;
1799;SDS011;919;48.274;12.292;2022-12-01T06:26:56;25.70;;;12.30;;
1799;SDS011;919;48.274;12.292;2022-12-01T06:29:23;22.90;;;12.10;;
1799;SDS011;919;48.274;12.292;2022-12-01T06:31:50;19.87;;;12.10;;
1799;SDS011;919;48.274;12.292;2022-12-01T06:34:17;20.63;;;11.27;;
1799;SDS011;919;48.274;12.292;2022-12-01T06:36:45;23.83;;;12.83;;
1799;SDS011;919;48.274;12.292;2022-12-01T06:39:13;20.80;;;11.23;;
1799;SDS011;919;48.274;12.292;2022-12-01T06:41:40;16.33;;;10.43;;
1799;SDS011;919;48.274;12.292;2022-12-01T06:44:07;22.27;;;11.03;;
1799;SDS011;919;48.274;12.292;2022-12-01T06:46:35;22.57;;;11.07;;
1799;SDS011;919;48.274;12.292;2022-12-01T06:49:01;19.13;;;11.97;;
1799;SDS011;919;48.274;12.292;2022-12-01T06:51:28;20.47;;;11.63;;
1799;SDS011;919;48.274;12.292;2022-12-01T06:53:59;19.77;;;12.23;;
1799;SDS011;919;48.274;12.292;2022-12-01T06:56:25;21.40;;;11.30;;
1799;SDS011;919;48.274;12.292;2022-12-01T06:58:52;24.50;;;12.10;;
1799;SDS011;919;48.274;12.292;2022-12-01T07:01:19;20.30;;;13.27;;
1799;SDS011;919;48.274;12.292;2022-12-01T07:03:46;23.07;;;11.43;;
1799;SDS011;919;48.274;12.292;2022-12-01T07:06:13;21.00;;;12.00;;
1799;SDS011;919;48.274;12.292;2022-12-01T07:08:40;24.03;;;14.00;;
1799;SDS011;919;48.274;12.292;2022-12-01T07:11:09;20.13;;;12.47;;
1799;SDS011;919;48.274;12.292;2022-12-01T07:13:37;19.50;;;11.60;;
1799;SDS011;919;48.274;12.292;2022-12-01T07:16:04;19.73;;;10.93;;
1799;SDS011;919;48.274;12.292;2022-12-01T07:18:33;19.17;;;10.00;;
1799;SDS011;919;48.274;12.292;2022-12-01T07:21:01;21.87;;;11.40;;
1799;SDS011;919;48.274;12.292;2022-12-01T07:23:29;17.53;;;10.47;;
1799;SDS011;919;48.274;12.292;2022-12-01T07:25:57;21.80;;;12.20;;
1799;SDS011;919;48.274;12.292;2022-12-01T07:28:25;17.90;;;10.47;;
1799;SDS011;919;48.274;12.292;2022-12-01T07:30:52;15.60;;;10.23;;
1799;SDS011;919;48.274;12.292;2022-12-01T07:33:19;20.50;;;11.17;;
1799;SDS011;919;48.274;12.292;2022-12-01T07:35:46;16.90;;;10.63;;
1799;SDS011;919;48.274;12.292;2022-12-01T07:38:12;23.60;;;11.50;;
1799;SDS011;919;48.274;12.292;2022-12-01T07:40:39;23.17;;;12.57;;
1799;SDS011;919;48.274;12.292;2022-12-01T07:43:06;20.90;;;12.40;;
1799;SDS011;919;48.274;12.292;2022-12-01T07:45:34;24.30;;;13.10;;
1799;SDS011;919;48.274;12.292;2022-12-01T07:48:01;22.23;;;12.60;;
1799;SDS011;919;48.274;12.292;2022-12-01T07:50:28;17.60;;;11.37;;
1799;SDS011;919;48.274;12.292;2022-12-01T07:52:54;24.13;;;12.60;;
1799;SDS011;919;48.274;12.292;2022-12-01T07:55:21;24.07;;;12.20;;
1799;SDS011;919;48.274;12.292;2022-12-01T07:57:48;24.90;;;13.70;;
1799;SDS011;919;48.274;12.292;2022-12-01T08:00:15;23.60;;;13.67;;
1799;SDS011;919;48.274;12.292;2022-12-01T08:02:44;22.10;;;12.20;;
1799;SDS011;919;48.274;12.292;2022-12-01T08:05:13;22.63;;;13.87;;
1799;SDS011;919;48.274;12.292;2022-12-01T08:07:40;22.90;;;13.33;;
1799;SDS011;919;48.274;12.292;2022-12-01T08:10:07;26.90;;;13.30;;
1799;SDS011;919;48.274;12.292;2022-12-01T08:12:34;21.20;;;12.10;;
1799;SDS011;919;48.274;12.292;2022-12-01T08:15:01;26.97;;;14.67;;
1799;SDS011;919;48.274;12.292;2022-12-01T08:17:27;20.53;;;12.40;;
1799;SDS011;919;48.274;12.292;2022-12-01T08:19:56;20.98;;;11.78;;
1799;SDS011;919;48.274;12.292;2022-12-01T08:22:22;24.90;;;11.70;;
1799;SDS011;919;48.274;12.292;2022-12-01T08:24:49;22.90;;;14.00;;
1799;SDS011;919;48.274;12.292;2022-12-01T08:27:16;21.40;;;12.67;;
1799;SDS011;919;48.274;12.292;2022-12-01T08:29:43;24.60;;;13.27;;
1799;SDS011;919;48.274;12.292;2022-12-01T08:32:10;22.27;;;13.90;;
1799;SDS011;919;48.274;12.292;2022-12-01T08:34:37;23.53;;;13.73;;
1799;SDS011;919;48.274;12.292;2022-12-01T08:37:06;27.33;;;15.00;;
1799;SDS011;919;48.274;12.292;2022-12-01T08:39:33;22.30;;;12.77;;
1799;SDS011;919;48.274;12.292;2022-12-01T08:42:00;27.93;;;13.87;;
1799;SDS011;919;48.274;12.292;2022-12-01T08:44:27;24.70;;;13.43;;
1799;SDS011;919;48.274;12.292;2022-12-01T08:46:54;24.70;;;14.33;;
1799;SDS011;919;48.274;12.292;2022-12-01T08:49:20;20.97;;;12.30;;
1799;SDS011;919;48.274;12.292;2022-12-01T08:51:47;22.73;;;13.17;;
1799;SDS011;919;48.274;12.292;2022-12-01T08:54:16;24.37;;;13.30;;
1799;SDS011;919;48.274;12.292;2022-12-01T08:56:43;25.00;;;14.57;;
1799;SDS011;919;48.274;12.292;2022-12-01T08:59:10;29.30;;;16.23;;
1799;SDS011;919;48.274;12.292;2022-12-01T09:01:37;26.10;;;14.60;;
1799;SDS011;919;48.274;12.292;2022-12-01T09:04:16;27.30;;;15.07;;
1799;SDS011;919;48.274;12.292;2022-12-01T09:06:44;25.03;;;13.83;;
1799;SDS011;919;48.274;12.292;2022-12-01T09:09:12;29.10;;;14.60;;
1799;SDS011;919;48.274;12.292;2022-12-01T09:11:42;26.00;;;13.80;;
1799;SDS011;919;48.274;12.292;2022-12-01T09:14:09;25.00;;;14.90;;
1799;SDS011;919;48.274;12.292;2022-12-01T09:16:36;24.00;;;14.50;;
1799;SDS011;919;48.274;12.292;2022-12-01T09:19:04;30.10;;;14.97;;
1799;SDS011;919;48.274;12.292;2022-12-01T09:21:31;26.73;;;14.30;;
1799;SDS011;919;48.274;12.292;2022-12-01T09:23:59;27.70;;;14.83;;
1799;SDS011;919;48.274;12.292;2022-12-01T09:26:27;33.53;;;17.23;;
1799;SDS011;919;48.274;12.292;2022-12-01T09:28:55;27.73;;;15.00;;
1799;SDS011;919;48.274;12.292;2022-12-01T09:31:23;27.83;;;15.23;;
1799;SDS011;919;48.274;12.292;2022-12-01T09:33:52;28.20;;;15.70;;
1799;SDS011;919;48.274;12.292;2022-12-01T09:36:20;30.07;;;15.53;;
1799;SDS011;919;48.274;12.292;2022-12-01T09:38:47;26.07;;;14.30;;
1799;SDS011;919;48.274;12.292;2022-12-01T09:41:15;29.00;;;17.10;;
1799;SDS011;919;48.274;12.292;2022-12-01T09:43:45;27.23;;;14.67;;
1799;SDS011;919;48.274;12.292;2022-12-01T09:46:18;26.50;;;15.40;;
1799;SDS011;919;48.274;12.292;2022-12-01T09:48:50;32.57;;;16.33;;
1799;SDS011;919;48.274;12.292;2022-12-01T09:51:19;24.93;;;13.33;;
1799;SDS011;919;48.274;12.292;2022-12-01T09:53:49;25.83;;;15.53;;
1799;SDS011;919;48.274;12.292;2022-12-01T09:56:18;29.93;;;16.10;;
1799;SDS011;919;48.274;12.292;2022-12-01T09:58:47;28.90;;;15.97;;
1799;SDS011;919;48.274;12.292;2022-12-01T10:01:17;36.00;;;17.80;;
1799;SDS011;919;48.274;12.292;2022-12-01T10:03:46;32.17;;;17.17;;
1799;SDS011;919;48.274;12.292;2022-12-01T10:06:18;25.97;;;14.87;;
1799;SDS011;919;48.274;12.292;2022-12-01T10:08:49;32.13;;;15.73;;
1799;SDS011;919;48.274;12.292;2022-12-01T10:11:34;24.40;;;13.97;;
1799;SDS011;919;48.274;12.292;2022-12-01T10:14:02;31.20;;;16.90;;
1799;SDS011;919;48.274;12.292;2022-12-01T10:16:34;31.73;;;17.90;;
1799;SDS011;919;48.274;12.292;2022-12-01T10:19:07;28.97;;;16.57;;
1799;SDS011;919;48.274;12.292;2022-12-01T10:21:51;35.07;;;18.97;;
1799;SDS011;919;48.274;12.292;2022-12-01T10:24:29;30.87;;;17.20;;
1799;SDS011;919;48.274;12.292;2022-12-01T10:27:08;35.23;;;17.00;;
1799;SDS011;919;48.274;12.292;2022-12-01T10:29:51;28.40;;;15.50;;
1799;SDS011;919;48.274;12.292;2022-12-01T10:32:28;29.30;;;15.33;;
1799;SDS011;919;48.274;12.292;2022-12-01T10:35:03;26.50;;;16.00;;
1799;SDS011;919;48.274;12.292;2022-12-01T10:37:30;30.50;;;16.77;;
1799;SDS011;919;48.274;12.292;2022-12-01T10:39:57;25.40;;;14.70;;
1799;SDS011;919;48.274;12.292;2022-12-01T10:42:26;24.73;;;13.57;;
1799;SDS011;919;48.274;12.292;2022-12-01T10:44:54;30.03;;;16.17;;
1799;SDS011;919;48.274;12.292;2022-12-01T10:47:24;28.00;;;16.17;;
1799;SDS011;919;48.274;12.292;2022-12-01T10:49:53;28.43;;;16.90;;
1799;SDS011;919;48.274;12.292;2022-12-01T10:52:29;28.97;;;15.30;;
1799;SDS011;919;48.274;12.292;2022-12-01T10:54:58;27.53;;;15.80;;
1799;SDS011;919;48.274;12.292;2022-12-01T10:57:25;25.07;;;13.47;;
1799;SDS011;919;48.274;12.292;2022-12-01T10:59:54;26.37;;;14.43;;
1799;SDS011;919;48.274;12.292;2022-12-01T11:02:23;27.37;;;14.90;;
1799;SDS011;919;48.274;12.292;2022-12-01T11:04:54;29.30;;;15.50;;
1799;SDS011;919;48.274;12.292;2022-12-01T11:07:24;27.73;;;14.93;;
1799;SDS011;919;48.274;12.292;2022-12-01T11:09:58;26.50;;;14.00;;
1799;SDS011;919;48.274;12.292;2022-12-01T11:12:31;28.80;;;15.33;;
1799;SDS011;919;48.274;12.292;2022-12-01T11:14:58;35.80;;;17.90;;
1799;SDS011;919;48.274;12.292;2022-12-01T11:17:30;28.77;;;17.43;;
1799;SDS011;919;48.274;12.292;2022-12-01T11:22:52;29.50;;;17.07;;
1799;SDS011;919;48.274;12.292;2022-12-01T11:25:19;31.03;;;17.30;;
1799;SDS011;919;48.274;12.292;2022-12-01T11:27:48;23.43;;;13.57;;
1799;SDS011;919;48.274;12.292;2022-12-01T11:30:21;27.30;;;15.60;;
1799;SDS011;919;48.274;12.292;2022-12-01T11:32:50;25.37;;;14.50;;
1799;SDS011;919;48.274;12.292;2022-12-01T11:35:19;24.27;;;15.87;;
1799;SDS011;919;48.274;12.292;2022-12-01T11:37:51;27.00;;;14.80;;
1799;SDS011;919;48.274;12.292;2022-12-01T11:40:21;33.80;;;17.50;;
1799;SDS011;919;48.274;12.292;2022-12-01T11:42:50;25.93;;;15.50;;
1799;SDS011;919;48.274;12.292;2022-12-01T11:45:24;32.27;;;16.17;;
1799;SDS011;919;48.274;12.292;2022-12-01T11:47:57;33.80;;;15.37;;
1799;SDS011;919;48.274;12.292;2022-12-01T11:50:26;30.37;;;15.87;;
1799;SDS011;919;48.274;12.292;2022-12-01T11:52:55;28.17;;;14.77;;
1799;SDS011;919;48.274;12.292;2022-12-01T11:55:23;23.60;;;14.30;;
1799;SDS011;919;48.274;12.292;2022-12-01T11:57:54;28.47;;;15.50;;
1799;SDS011;919;48.274;12.292;2022-12-01T12:00:23;30.90;;;15.13;;
1799;SDS011;919;48.274;12.292;2022-12-01T12:02:56;30.83;;;17.83;;
1799;SDS011;919;48.274;12.292;2022-12-01T12:05:53;31.40;;;17.30;;
1799;SDS011;919;48.274;12.292;2022-12-01T12:08:30;32.33;;;14.97;;
1799;SDS011;919;48.274;12.292;2022-12-01T12:11:07;28.30;;;14.40;;
1799;SDS011;919;48.274;12.292;2022-12-01T12:13:51;29.20;;;15.40;;
1799;SDS011;919;48.274;12.292;2022-12-01T12:16:33;33.47;;;17.00;;
1799;SDS011;919;48.274;12.292;2022-12-01T12:19:15;31.77;;;16.90;;
1799;SDS011;919;48.274;12.292;2022-12-01T12:21:54;29.90;;;15.50;;
1799;SDS011;919;48.274;12.292;2022-12-01T12:24:35;31.50;;;17.07;;
1799;SDS011;919;48.274;12.292;2022-12-01T12:27:11;27.57;;;15.27;;
1799;SDS011;919;48.274;12.292;2022-12-01T12:29:49;29.57;;;15.43;;
1799;SDS011;919;48.274;12.292;2022-12-01T12:32:27;24.97;;;13.20;;
1799;SDS011;919;48.274;12.292;2022-12-01T12:35:07;26.00;;;14.40;;
1799;SDS011;919;48.274;12.292;2022-12-01T12:37:49;24.37;;;12.70;;
1799;SDS011;919;48.274;12.292;2022-12-01T12:40:34;21.57;;;12.13;;
1799;SDS011;919;48.274;12.292;2022-12-01T12:43:13;32.80;;;15.30;;
1799;SDS011;919;48.274;12.292;2022-12-01T12:45:48;23.73;;;12.63;;
1799;SDS011;919;48.274;12.292;2022-12-01T12:48:26;24.43;;;12.10;;
1799;SDS011;919;48.274;12.292;2022-12-01T12:51:07;24.57;;;12.40;;
1799;SDS011;919;48.274;12.292;2022-12-01T12:53:40;25.67;;;14.70;;
1799;SDS011;919;48.274;12.292;2022-12-01T12:56:13;28.20;;;14.00;;
1799;SDS011;919;48.274;12.292;2022-12-01T12:58:42;24.77;;;13.77;;
1799;SDS011;919;48.274;12.292;2022-12-01T13:01:20;23.47;;;12.20;;
1799;SDS011;919;48.274;12.292;2022-12-01T13:03:50;29.10;;;13.37;;
1799;SDS011;919;48.274;12.292;2022-12-01T13:06:23;32.60;;;14.87;;
1799;SDS011;919;48.274;12.292;2022-12-01T13:08:54;25.63;;;13.90;;
1799;SDS011;919;48.274;12.292;2022-12-01T13:11:28;23.60;;;14.10;;
1799;SDS011;919;48.274;12.292;2022-12-01T13:13:59;31.00;;;16.27;;
1799;SDS011;919;48.274;12.292;2022-12-01T13:16:31;27.30;;;13.13;;
1799;SDS011;919;48.274;12.292;2022-12-01T13:19:02;25.63;;;15.00;;
1799;SDS011;919;48.274;12.292;2022-12-01T13:21:34;26.90;;;13.90;;
1799;SDS011;919;48.274;12.292;2022-12-01T13:24:04;27.90;;;15.40;;
1799;SDS011;919;48.274;12.292;2022-12-01T13:26:34;31.47;;;15.43;;
1799;SDS011;919;48.274;12.292;2022-12-01T13:29:03;29.63;;;14.80;;
1799;SDS011;919;48.274;12.292;2022-12-01T13:31:40;28.70;;;14.00;;
1799;SDS011;919;48.274;12.292;2022-12-01T13:34:14;29.07;;;14.87;;
1799;SDS011;919;48.274;12.292;2022-12-01T13:36:47;27.70;;;13.10;;
1799;SDS011;919;48.274;12.292;2022-12-01T13:39:16;24.37;;;13.23;;
1799;SDS011;919;48.274;12.292;2022-12-01T13:41:46;27.93;;;15.90;;
1799;SDS011;919;48.274;12.292;2022-12-01T13:44:24;31.30;;;15.10;;
1799;SDS011;919;48.274;12.292;2022-12-01T13:46:56;29.23;;;14.20;;
1799;SDS011;919;48.274;12.292;2022-12-01T13:49:32;33.03;;;15.10;;
1799;SDS011;919;48.274;12.292;2022-12-01T13:52:16;34.80;;;17.87;;
1799;SDS011;919;48.274;12.292;2022-12-01T13:54:59;30.20;;;15.93;;
1799;SDS011;919;48.274;12.292;2022-12-01T13:57:48;40.67;;;17.73;;
1799;SDS011;919;48.274;12.292;2022-12-01T14:00:37;36.03;;;16.57;;
1799;SDS011;919;48.274;12.292;2022-12-01T14:06:08;31.80;;;14.60;;
1799;SDS011;919;48.274;12.292;2022-12-01T14:08:45;32.00;;;16.43;;
1799;SDS011;919;48.274;12.292;2022-12-01T14:11:19;27.37;;;14.60;;
1799;SDS011;919;48.274;12.292;2022-12-01T14:13:51;30.20;;;14.60;;
1799;SDS011;919;48.274;12.292;2022-12-01T14:16:20;30.57;;;14.90;;
1799;SDS011;919;48.274;12.292;2022-12-01T14:18:48;29.50;;;13.80;;
1799;SDS011;919;48.274;12.292;2022-12-01T14:21:16;41.30;;;18.90;;
1799;SDS011;919;48.274;12.292;2022-12-01T14:24:14;37.57;;;17.47;;
1799;SDS011;919;48.274;12.292;2022-12-01T14:26:46;34.00;;;16.80;;
1799;SDS011;919;48.274;12.292;2022-12-01T14:29:24;34.33;;;15.97;;
1799;SDS011;919;48.274;12.292;2022-12-01T14:34:49;36.40;;;17.30;;
1799;SDS011;919;48.274;12.292;2022-12-01T14:37:18;31.93;;;16.50;;
1799;SDS011;919;48.274;12.292;2022-12-01T14:39:57;34.17;;;14.97;;
1799;SDS011;919;48.274;12.292;2022-12-01T14:42:31;28.60;;;14.50;;
1799;SDS011;919;48.274;12.292;2022-12-01T14:45:21;29.83;;;14.53;;
1799;SDS011;919;48.274;12.292;2022-12-01T14:47:51;40.80;;;16.53;;
1799;SDS011;919;48.274;12.292;2022-12-01T14:50:27;37.37;;;14.97;;
1799;SDS011;919;48.274;12.292;2022-12-01T14:53:01;34.80;;;16.90;;
1799;SDS011;919;48.274;12.292;2022-12-01T14:55:34;34.40;;;16.77;;
1799;SDS011;919;48.274;12.292;2022-12-01T14:58:04;36.43;;;15.97;;
1799;SDS011;919;48.274;12.292;2022-12-01T15:00:35;36.93;;;15.30;;
1799;SDS011;919;48.274;12.292;2022-12-01T15:03:05;29.77;;;14.70;;
1799;SDS011;919;48.274;12.292;2022-12-01T15:05:36;30.80;;;16.00;;
1799;SDS011;919;48.274;12.292;2022-12-01T15:08:12;33.27;;;15.97;;
1799;SDS011;919;48.274;12.292;2022-12-01T15:10:47;31.27;;;16.20;;
1799;SDS011;919;48.274;12.292;2022-12-01T15:13:19;34.23;;;16.80;;
1799;SDS011;919;48.274;12.292;2022-12-01T15:15:50;34.93;;;15.40;;